sensor_id;sensor_type;location;lat;lon;timestamp;P1;durP1;ratioP1;P2;durP2;ratioP2
15528;SDS011;7866;52.280;9.500;2023-03-19T00:02:52;1.10;;;0.83;;
15528;SDS011;7866;52.280;9.500;2023-03-19T00:07:55;1.10;;;1.10;;
15528;SDS011;7866;52.280;9.500;2023-03-19T00:12:57;2.30;;;1.00;;
15528;SDS011;7866;52.280;9.500;2023-03-19T00:17:58;2.00;;;1.10;;
15528;SDS011;7866;52.280;9.500;2023-03-19T00:23:01;3.13;;;1.40;;
15528;SDS011;7866;52.280;9.500;2023-03-19T00:28:03;1.60;;;1.30;;
15528;SDS011;7866;52.280;9.500;2023-03-19T00:33:04;1.43;;;1.10;;
15528;SDS011;7866;52.280;9.500;2023-03-19T00:38:08;2.83;;;1.17;;
15528;SDS011;7866;52.280;9.500;2023-03-19T00:43:10;2.03;;;1.30;;
15528;SDS011;7866;52.280;9.500;2023-03-19T00:48:11;3.13;;;1.30;;
15528;SDS011;7866;52.280;9.500;2023-03-19T00:53:14;3.00;;;1.60;;
15528;SDS011;7866;52.280;9.500;2023-03-19T00:58:16;2.37;;;1.30;;
15528;SDS011;7866;52.280;9.500;2023-03-19T01:03:18;1.83;;;1.53;;
15528;SDS011;7866;52.280;9.500;2023-03-19T01:08:21;1.40;;;1.30;;
15528;SDS011;7866;52.280;9.500;2023-03-19T01:13:22;1.93;;;1.30;;
15528;SDS011;7866;52.280;9.500;2023-03-19T01:18:24;3.80;;;1.60;;
15528;SDS011;7866;52.280;9.500;2023-03-19T01:23:27;1.50;;;1.40;;
15528;SDS011;7866;52.280;9.500;2023-03-19T01:28:29;2.07;;;1.27;;
15528;SDS011;7866;52.280;9.500;2023-03-19T01:33:31;1.87;;;1.57;;
15528;SDS011;7866;52.280;9.500;2023-03-19T01:38:35;3.87;;;1.50;;
15528;SDS011;7866;52.280;9.500;2023-03-19T01:43:36;6.97;;;1.60;;
15528;SDS011;7866;52.280;9.500;2023-03-19T01:48:38;5.10;;;1.50;;
15528;SDS011;7866;52.280;9.500;2023-03-19T01:53:46;1.50;;;1.40;;
15528;SDS011;7866;52.280;9.500;2023-03-19T01:58:51;2.50;;;1.47;;
15528;SDS011;7866;52.280;9.500;2023-03-19T02:03:54;2.83;;;1.70;;
15528;SDS011;7866;52.280;9.500;2023-03-19T02:08:57;3.03;;;1.50;;
15528;SDS011;7866;52.280;9.500;2023-03-19T02:13:59;2.63;;;1.80;;
15528;SDS011;7866;52.280;9.500;2023-03-19T02:19:01;2.60;;;1.57;;
15528;SDS011;7866;52.280;9.500;2023-03-19T02:24:07;4.47;;;1.60;;
15528;SDS011;7866;52.280;9.500;2023-03-19T02:29:14;2.77;;;1.87;;
15528;SDS011;7866;52.280;9.500;2023-03-19T02:34:32;2.40;;;1.60;;
15528;SDS011;7866;52.280;9.500;2023-03-19T02:39:37;2.57;;;1.30;;
15528;SDS011;7866;52.280;9.500;2023-03-19T02:44:45;2.00;;;1.80;;
15528;SDS011;7866;52.280;9.500;2023-03-19T02:49:46;3.83;;;1.90;;
15528;SDS011;7866;52.280;9.500;2023-03-19T02:54:48;4.27;;;1.97;;
15528;SDS011;7866;52.280;9.500;2023-03-19T02:59:51;2.63;;;1.73;;
15528;SDS011;7866;52.280;9.500;2023-03-19T03:04:53;2.87;;;1.90;;
15528;SDS011;7866;52.280;9.500;2023-03-19T03:09:54;2.67;;;1.93;;
15528;SDS011;7866;52.280;9.500;2023-03-19T03:14:57;4.27;;;2.13;;
15528;SDS011;7866;52.280;9.500;2023-03-19T03:20:00;4.63;;;2.57;;
15528;SDS011;7866;52.280;9.500;2023-03-19T03:25:01;3.80;;;1.87;;
15528;SDS011;7866;52.280;9.500;2023-03-19T03:30:05;4.50;;;1.87;;
15528;SDS011;7866;52.280;9.500;2023-03-19T03:35:08;4.90;;;2.07;;
15528;SDS011;7866;52.280;9.500;2023-03-19T03:40:10;5.20;;;2.07;;
15528;SDS011;7866;52.280;9.500;2023-03-19T03:45:14;3.60;;;1.87;;
15528;SDS011;7866;52.280;9.500;2023-03-19T03:50:16;2.97;;;2.00;;
15528;SDS011;7866;52.280;9.500;2023-03-19T03:55:18;2.30;;;2.10;;
15528;SDS011;7866;52.280;9.500;2023-03-19T04:00:21;3.63;;;2.03;;
15528;SDS011;7866;52.280;9.500;2023-03-19T04:05:23;5.13;;;2.20;;
15528;SDS011;7866;52.280;9.500;2023-03-19T04:10:25;2.40;;;2.17;;
15528;SDS011;7866;52.280;9.500;2023-03-19T04:15:28;2.10;;;1.97;;
15528;SDS011;7866;52.280;9.500;2023-03-19T04:20:30;2.43;;;2.23;;
15528;SDS011;7866;52.280;9.500;2023-03-19T04:25:31;4.33;;;2.37;;
15528;SDS011;7866;52.280;9.500;2023-03-19T04:30:34;2.43;;;1.93;;
15528;SDS011;7866;52.280;9.500;2023-03-19T04:35:36;3.03;;;1.90;;
15528;SDS011;7866;52.280;9.500;2023-03-19T04:40:38;6.37;;;1.80;;
15528;SDS011;7866;52.280;9.500;2023-03-19T04:45:42;3.07;;;2.13;;
15528;SDS011;7866;52.280;9.500;2023-03-19T04:50:44;2.13;;;2.03;;
15528;SDS011;7866;52.280;9.500;2023-03-19T04:55:46;6.93;;;2.30;;
15528;SDS011;7866;52.280;9.500;2023-03-19T05:00:49;6.27;;;2.20;;
15528;SDS011;7866;52.280;9.500;2023-03-19T05:05:51;3.67;;;1.87;;
15528;SDS011;7866;52.280;9.500;2023-03-19T05:10:53;2.70;;;2.13;;
15528;SDS011;7866;52.280;9.500;2023-03-19T05:15:56;4.83;;;2.13;;
15528;SDS011;7866;52.280;9.500;2023-03-19T05:20:58;2.43;;;1.80;;
15528;SDS011;7866;52.280;9.500;2023-03-19T05:26:00;4.20;;;2.17;;
15528;SDS011;7866;52.280;9.500;2023-03-19T05:31:03;3.20;;;1.93;;
15528;SDS011;7866;52.280;9.500;2023-03-19T05:36:06;3.23;;;1.60;;
15528;SDS011;7866;52.280;9.500;2023-03-19T05:41:08;1.67;;;1.57;;
15528;SDS011;7866;52.280;9.500;2023-03-19T05:46:11;2.50;;;1.73;;
15528;SDS011;7866;52.280;9.500;2023-03-19T05:51:13;3.37;;;2.40;;
15528;SDS011;7866;52.280;9.500;2023-03-19T05:56:14;2.97;;;2.27;;
15528;SDS011;7866;52.280;9.500;2023-03-19T06:01:17;2.13;;;1.80;;
15528;SDS011;7866;52.280;9.500;2023-03-19T06:06:19;3.83;;;2.13;;
15528;SDS011;7866;52.280;9.500;2023-03-19T06:11:21;3.07;;;2.03;;
15528;SDS011;7866;52.280;9.500;2023-03-19T06:16:23;1.80;;;1.70;;
15528;SDS011;7866;52.280;9.500;2023-03-19T06:21:26;3.40;;;2.13;;
15528;SDS011;7866;52.280;9.500;2023-03-19T06:26:29;4.60;;;2.10;;
15528;SDS011;7866;52.280;9.500;2023-03-19T06:31:32;4.57;;;1.93;;
15528;SDS011;7866;52.280;9.500;2023-03-19T06:36:33;1.97;;;1.80;;
15528;SDS011;7866;52.280;9.500;2023-03-19T06:41:36;3.63;;;2.40;;
15528;SDS011;7866;52.280;9.500;2023-03-19T06:46:39;3.37;;;2.17;;
15528;SDS011;7866;52.280;9.500;2023-03-19T06:51:40;3.03;;;2.20;;
15528;SDS011;7866;52.280;9.500;2023-03-19T06:56:42;2.57;;;2.37;;
15528;SDS011;7866;52.280;9.500;2023-03-19T07:01:46;4.40;;;2.57;;
15528;SDS011;7866;52.280;9.500;2023-03-19T07:06:48;7.73;;;3.10;;
15528;SDS011;7866;52.280;9.500;2023-03-19T07:11:49;5.10;;;2.20;;
15528;SDS011;7866;52.280;9.500;2023-03-19T07:16:52;3.57;;;2.13;;
15528;SDS011;7866;52.280;9.500;2023-03-19T07:21:54;3.50;;;2.37;;
15528;SDS011;7866;52.280;9.500;2023-03-19T07:26:55;2.40;;;2.10;;
15528;SDS011;7866;52.280;9.500;2023-03-19T07:31:59;2.40;;;2.17;;
15528;SDS011;7866;52.280;9.500;2023-03-19T07:37:00;3.83;;;2.10;;
15528;SDS011;7866;52.280;9.500;2023-03-19T07:42:02;4.00;;;2.40;;
15528;SDS011;7866;52.280;9.500;2023-03-19T07:47:06;2.37;;;1.70;;
15528;SDS011;7866;52.280;9.500;2023-03-19T07:52:07;2.87;;;2.00;;
15528;SDS011;7866;52.280;9.500;2023-03-19T07:57:10;2.73;;;1.97;;
15528;SDS011;7866;52.280;9.500;2023-03-19T08:02:13;2.47;;;1.57;;
15528;SDS011;7866;52.280;9.500;2023-03-19T08:07:15;3.03;;;2.10;;
15528;SDS011;7866;52.280;9.500;2023-03-19T08:12:17;1.57;;;1.47;;
15528;SDS011;7866;52.280;9.500;2023-03-19T08:17:20;2.20;;;1.43;;
15528;SDS011;7866;52.280;9.500;2023-03-19T08:22:22;2.97;;;1.73;;
15528;SDS011;7866;52.280;9.500;2023-03-19T08:27:23;1.53;;;1.20;;
15528;SDS011;7866;52.280;9.500;2023-03-19T08:32:27;1.47;;;1.20;;
15528;SDS011;7866;52.280;9.500;2023-03-19T08:37:28;2.20;;;1.30;;
15528;SDS011;7866;52.280;9.500;2023-03-19T08:42:30;1.40;;;1.30;;
15528;SDS011;7866;52.280;9.500;2023-03-19T08:47:33;2.03;;;1.67;;
15528;SDS011;7866;52.280;9.500;2023-03-19T08:52:35;2.47;;;1.70;;
15528;SDS011;7866;52.280;9.500;2023-03-19T08:57:36;3.60;;;1.40;;
15528;SDS011;7866;52.280;9.500;2023-03-19T09:02:39;2.92;;;1.52;;
15528;SDS011;7866;52.280;9.500;2023-03-19T09:07:41;1.52;;;1.42;;
15528;SDS011;7866;52.280;9.500;2023-03-19T09:12:42;2.75;;;1.50;;
15528;SDS011;7866;52.280;9.500;2023-03-19T09:17:45;2.00;;;1.58;;
15528;SDS011;7866;52.280;9.500;2023-03-19T09:22:47;1.98;;;1.38;;
15528;SDS011;7866;52.280;9.500;2023-03-19T09:27:49;1.70;;;1.48;;
15528;SDS011;7866;52.280;9.500;2023-03-19T09:32:52;3.22;;;1.60;;
15528;SDS011;7866;52.280;9.500;2023-03-19T09:37:54;3.13;;;1.80;;
15528;SDS011;7866;52.280;9.500;2023-03-19T09:42:59;3.10;;;1.70;;
15528;SDS011;7866;52.280;9.500;2023-03-19T09:48:13;2.35;;;1.83;;
15528;SDS011;7866;52.280;9.500;2023-03-19T09:53:23;2.38;;;1.67;;
15528;SDS011;7866;52.280;9.500;2023-03-19T09:58:36;3.90;;;2.00;;
15528;SDS011;7866;52.280;9.500;2023-03-19T10:03:42;4.25;;;1.98;;
15528;SDS011;7866;52.280;9.500;2023-03-19T10:08:52;2.78;;;1.63;;
15528;SDS011;7866;52.280;9.500;2023-03-19T10:14:07;2.33;;;1.90;;
15528;SDS011;7866;52.280;9.500;2023-03-19T10:19:25;3.45;;;2.20;;
15528;SDS011;7866;52.280;9.500;2023-03-19T10:24:37;3.58;;;1.80;;
15528;SDS011;7866;52.280;9.500;2023-03-19T10:29:42;3.45;;;1.88;;
15528;SDS011;7866;52.280;9.500;2023-03-19T10:34:45;3.30;;;1.42;;
15528;SDS011;7866;52.280;9.500;2023-03-19T10:39:50;3.53;;;1.80;;
15528;SDS011;7866;52.280;9.500;2023-03-19T10:44:52;2.78;;;1.70;;
15528;SDS011;7866;52.280;9.500;2023-03-19T10:50:00;3.22;;;1.92;;
15528;SDS011;7866;52.280;9.500;2023-03-19T10:55:04;2.35;;;1.60;;
15528;SDS011;7866;52.280;9.500;2023-03-19T11:00:14;3.67;;;1.70;;
15528;SDS011;7866;52.280;9.500;2023-03-19T11:05:23;3.03;;;1.40;;
15528;SDS011;7866;52.280;9.500;2023-03-19T11:10:26;2.80;;;1.50;;
15528;SDS011;7866;52.280;9.500;2023-03-19T11:15:32;2.97;;;1.55;;
15528;SDS011;7866;52.280;9.500;2023-03-19T11:20:37;3.17;;;1.50;;
15528;SDS011;7866;52.280;9.500;2023-03-19T11:25:41;2.83;;;1.60;;
15528;SDS011;7866;52.280;9.500;2023-03-19T11:30:49;1.40;;;1.30;;
15528;SDS011;7866;52.280;9.500;2023-03-19T11:35:59;1.70;;;1.50;;
15528;SDS011;7866;52.280;9.500;2023-03-19T11:41:07;3.67;;;1.80;;
15528;SDS011;7866;52.280;9.500;2023-03-19T11:46:30;4.57;;;1.33;;
15528;SDS011;7866;52.280;9.500;2023-03-19T11:51:45;2.85;;;1.45;;
15528;SDS011;7866;52.280;9.500;2023-03-19T11:56:53;2.17;;;1.50;;
15528;SDS011;7866;52.280;9.500;2023-03-19T12:07:35;2.78;;;1.50;;
15528;SDS011;7866;52.280;9.500;2023-03-19T12:12:45;5.35;;;1.48;;
15528;SDS011;7866;52.280;9.500;2023-03-19T12:17:58;1.98;;;1.33;;
15528;SDS011;7866;52.280;9.500;2023-03-19T12:23:14;2.22;;;1.55;;
15528;SDS011;7866;52.280;9.500;2023-03-19T12:28:29;1.95;;;1.30;;
15528;SDS011;7866;52.280;9.500;2023-03-19T12:33:35;1.83;;;1.70;;
15528;SDS011;7866;52.280;9.500;2023-03-19T12:38:50;2.22;;;1.48;;
15528;SDS011;7866;52.280;9.500;2023-03-19T12:43:55;1.77;;;1.67;;
15528;SDS011;7866;52.280;9.500;2023-03-19T12:49:03;2.65;;;1.80;;
15528;SDS011;7866;52.280;9.500;2023-03-19T12:54:11;2.78;;;1.88;;
15528;SDS011;7866;52.280;9.500;2023-03-19T12:59:16;2.13;;;1.83;;
15528;SDS011;7866;52.280;9.500;2023-03-19T13:04:28;4.65;;;2.90;;
15528;SDS011;7866;52.280;9.500;2023-03-19T13:09:37;2.17;;;1.77;;
15528;SDS011;7866;52.280;9.500;2023-03-19T13:14:46;2.22;;;2.03;;
15528;SDS011;7866;52.280;9.500;2023-03-19T13:19:52;3.22;;;2.90;;
15528;SDS011;7866;52.280;9.500;2023-03-19T13:24:57;7.63;;;3.58;;
15528;SDS011;7866;52.280;9.500;2023-03-19T13:30:05;6.35;;;4.18;;
15528;SDS011;7866;52.280;9.500;2023-03-19T13:35:20;3.90;;;3.38;;
15528;SDS011;7866;52.280;9.500;2023-03-19T13:40:43;3.55;;;2.90;;
15528;SDS011;7866;52.280;9.500;2023-03-19T13:45:50;6.35;;;4.65;;
15528;SDS011;7866;52.280;9.500;2023-03-19T13:50:53;4.45;;;3.40;;
15528;SDS011;7866;52.280;9.500;2023-03-19T13:56:01;3.85;;;3.40;;
15528;SDS011;7866;52.280;9.500;2023-03-19T14:01:05;3.90;;;3.60;;
15528;SDS011;7866;52.280;9.500;2023-03-19T14:11:34;2.78;;;2.58;;
15528;SDS011;7866;52.280;9.500;2023-03-19T14:16:37;6.80;;;6.20;;
15528;SDS011;7866;52.280;9.500;2023-03-19T14:22:00;3.55;;;3.25;;
15528;SDS011;7866;52.280;9.500;2023-03-19T14:27:14;4.90;;;3.85;;
15528;SDS011;7866;52.280;9.500;2023-03-19T14:32:20;8.95;;;4.88;;
15528;SDS011;7866;52.280;9.500;2023-03-19T14:37:41;3.10;;;2.80;;
15528;SDS011;7866;52.280;9.500;2023-03-19T14:42:52;2.70;;;2.50;;
15528;SDS011;7866;52.280;9.500;2023-03-19T14:48:07;3.05;;;2.78;;
15528;SDS011;7866;52.280;9.500;2023-03-19T14:53:18;3.45;;;2.60;;
15528;SDS011;7866;52.280;9.500;2023-03-19T14:58:26;2.58;;;2.45;;
15528;SDS011;7866;52.280;9.500;2023-03-19T15:03:29;2.70;;;2.50;;
15528;SDS011;7866;52.280;9.500;2023-03-19T15:08:33;2.55;;;2.35;;
15528;SDS011;7866;52.280;9.500;2023-03-19T15:13:42;2.70;;;2.55;;
15528;SDS011;7866;52.280;9.500;2023-03-19T15:18:54;2.92;;;2.60;;
15528;SDS011;7866;52.280;9.500;2023-03-19T15:23:55;2.65;;;2.30;;
15528;SDS011;7866;52.280;9.500;2023-03-19T15:28:59;3.30;;;2.70;;
15528;SDS011;7866;52.280;9.500;2023-03-19T15:34:01;3.25;;;2.95;;
15528;SDS011;7866;52.280;9.500;2023-03-19T15:39:03;2.83;;;2.63;;
15528;SDS011;7866;52.280;9.500;2023-03-19T15:44:09;3.15;;;2.95;;
15528;SDS011;7866;52.280;9.500;2023-03-19T15:49:18;3.13;;;2.70;;
15528;SDS011;7866;52.280;9.500;2023-03-19T15:54:23;3.33;;;3.03;;
15528;SDS011;7866;52.280;9.500;2023-03-19T15:59:29;4.35;;;3.05;;
15528;SDS011;7866;52.280;9.500;2023-03-19T16:04:32;3.75;;;3.28;;
15528;SDS011;7866;52.280;9.500;2023-03-19T16:09:34;3.30;;;3.00;;
15528;SDS011;7866;52.280;9.500;2023-03-19T16:14:38;3.25;;;2.95;;
15528;SDS011;7866;52.280;9.500;2023-03-19T16:19:49;3.22;;;2.92;;
15528;SDS011;7866;52.280;9.500;2023-03-19T16:24:52;2.72;;;2.45;;
15528;SDS011;7866;52.280;9.500;2023-03-19T16:29:56;3.35;;;2.97;;
15528;SDS011;7866;52.280;9.500;2023-03-19T16:35:02;2.85;;;2.53;;
15528;SDS011;7866;52.280;9.500;2023-03-19T16:45:43;3.42;;;2.40;;
15528;SDS011;7866;52.280;9.500;2023-03-19T16:50:49;2.83;;;2.53;;
15528;SDS011;7866;52.280;9.500;2023-03-19T16:55:51;2.78;;;2.58;;
15528;SDS011;7866;52.280;9.500;2023-03-19T17:00:55;3.70;;;2.25;;
15528;SDS011;7866;52.280;9.500;2023-03-19T17:05:57;3.95;;;2.35;;
15528;SDS011;7866;52.280;9.500;2023-03-19T17:10:58;1.85;;;1.75;;
15528;SDS011;7866;52.280;9.500;2023-03-19T17:16:02;4.38;;;2.15;;
15528;SDS011;7866;52.280;9.500;2023-03-19T17:21:06;3.42;;;2.25;;
15528;SDS011;7866;52.280;9.500;2023-03-19T17:26:12;5.03;;;2.50;;
15528;SDS011;7866;52.280;9.500;2023-03-19T17:31:20;2.10;;;1.90;;
15528;SDS011;7866;52.280;9.500;2023-03-19T17:36:24;3.25;;;2.20;;
15528;SDS011;7866;52.280;9.500;2023-03-19T17:41:26;4.78;;;2.15;;
15528;SDS011;7866;52.280;9.500;2023-03-19T17:46:30;4.43;;;2.33;;
15528;SDS011;7866;52.280;9.500;2023-03-19T17:51:36;2.55;;;2.22;;
15528;SDS011;7866;52.280;9.500;2023-03-19T17:56:38;3.90;;;2.13;;
15528;SDS011;7866;52.280;9.500;2023-03-19T18:01:43;3.85;;;2.20;;
15528;SDS011;7866;52.280;9.500;2023-03-19T18:06:47;2.50;;;2.30;;
15528;SDS011;7866;52.280;9.500;2023-03-19T18:11:50;3.00;;;2.10;;
15528;SDS011;7866;52.280;9.500;2023-03-19T18:16:53;2.50;;;2.30;;
15528;SDS011;7866;52.280;9.500;2023-03-19T18:21:55;2.87;;;2.50;;
15528;SDS011;7866;52.280;9.500;2023-03-19T18:26:57;2.73;;;2.53;;
15528;SDS011;7866;52.280;9.500;2023-03-19T18:32:01;4.40;;;2.53;;
15528;SDS011;7866;52.280;9.500;2023-03-19T18:37:04;4.70;;;3.00;;
15528;SDS011;7866;52.280;9.500;2023-03-19T18:42:06;5.33;;;4.83;;
15528;SDS011;7866;52.280;9.500;2023-03-19T18:47:13;4.70;;;4.30;;
15528;SDS011;7866;52.280;9.500;2023-03-19T18:52:15;6.70;;;6.10;;
15528;SDS011;7866;52.280;9.500;2023-03-19T18:57:17;6.20;;;5.33;;
15528;SDS011;7866;52.280;9.500;2023-03-19T19:02:23;7.30;;;6.50;;
15528;SDS011;7866;52.280;9.500;2023-03-19T19:07:31;6.53;;;5.93;;
15528;SDS011;7866;52.280;9.500;2023-03-19T19:12:32;5.80;;;5.20;;
15528;SDS011;7866;52.280;9.500;2023-03-19T19:17:35;7.13;;;6.43;;
15528;SDS011;7866;52.280;9.500;2023-03-19T19:22:38;5.47;;;4.97;;
15528;SDS011;7866;52.280;9.500;2023-03-19T19:27:39;5.53;;;5.03;;
15528;SDS011;7866;52.280;9.500;2023-03-19T19:32:43;5.20;;;4.70;;
15528;SDS011;7866;52.280;9.500;2023-03-19T19:37:46;4.53;;;4.13;;
15528;SDS011;7866;52.280;9.500;2023-03-19T19:42:48;5.03;;;4.60;;
15528;SDS011;7866;52.280;9.500;2023-03-19T19:47:53;4.97;;;4.53;;
15528;SDS011;7866;52.280;9.500;2023-03-19T19:52:55;5.60;;;5.10;;
15528;SDS011;7866;52.280;9.500;2023-03-19T19:57:57;4.90;;;4.50;;
15528;SDS011;7866;52.280;9.500;2023-03-19T20:03:00;5.83;;;4.50;;
15528;SDS011;7866;52.280;9.500;2023-03-19T20:08:02;4.83;;;4.43;;
15528;SDS011;7866;52.280;9.500;2023-03-19T20:13:04;5.27;;;4.77;;
15528;SDS011;7866;52.280;9.500;2023-03-19T20:18:09;5.10;;;4.70;;
15528;SDS011;7866;52.280;9.500;2023-03-19T20:23:16;4.63;;;4.23;;
15528;SDS011;7866;52.280;9.500;2023-03-19T20:28:20;4.80;;;4.40;;
15528;SDS011;7866;52.280;9.500;2023-03-19T20:33:25;5.07;;;4.67;;
15528;SDS011;7866;52.280;9.500;2023-03-19T20:38:27;5.70;;;5.07;;
15528;SDS011;7866;52.280;9.500;2023-03-19T20:43:31;5.57;;;4.53;;
15528;SDS011;7866;52.280;9.500;2023-03-19T20:48:35;4.37;;;3.97;;
15528;SDS011;7866;52.280;9.500;2023-03-19T20:53:37;4.87;;;4.40;;
15528;SDS011;7866;52.280;9.500;2023-03-19T20:58:39;5.03;;;4.63;;
15528;SDS011;7866;52.280;9.500;2023-03-19T21:03:41;5.43;;;4.93;;
15528;SDS011;7866;52.280;9.500;2023-03-19T21:08:44;6.93;;;5.87;;
15528;SDS011;7866;52.280;9.500;2023-03-19T21:13:48;6.93;;;6.20;;
15528;SDS011;7866;52.280;9.500;2023-03-19T21:18:52;5.83;;;5.33;;
15528;SDS011;7866;52.280;9.500;2023-03-19T21:23:54;6.50;;;6.00;;
15528;SDS011;7866;52.280;9.500;2023-03-19T21:28:59;6.40;;;5.80;;
15528;SDS011;7866;52.280;9.500;2023-03-19T21:34:06;6.83;;;6.00;;
15528;SDS011;7866;52.280;9.500;2023-03-19T21:39:12;7.23;;;6.53;;
15528;SDS011;7866;52.280;9.500;2023-03-19T21:44:15;6.70;;;6.10;;
15528;SDS011;7866;52.280;9.500;2023-03-19T21:49:21;8.83;;;7.80;;
15528;SDS011;7866;52.280;9.500;2023-03-19T21:54:23;8.87;;;7.97;;
15528;SDS011;7866;52.280;9.500;2023-03-19T21:59:25;8.47;;;7.57;;
15528;SDS011;7866;52.280;9.500;2023-03-19T22:04:32;8.43;;;7.33;;
15528;SDS011;7866;52.280;9.500;2023-03-19T22:09:34;8.27;;;7.47;;
15528;SDS011;7866;52.280;9.500;2023-03-19T22:14:36;8.50;;;7.70;;
15528;SDS011;7866;52.280;9.500;2023-03-19T22:19:40;9.47;;;8.57;;
15528;SDS011;7866;52.280;9.500;2023-03-19T22:24:42;8.50;;;7.70;;
15528;SDS011;7866;52.280;9.500;2023-03-19T22:29:43;9.20;;;8.30;;
15528;SDS011;7866;52.280;9.500;2023-03-19T22:34:47;9.27;;;8.37;;
15528;SDS011;7866;52.280;9.500;2023-03-19T22:39:49;10.03;;;9.03;;
15528;SDS011;7866;52.280;9.500;2023-03-19T22:44:50;11.20;;;10.10;;
15528;SDS011;7866;52.280;9.500;2023-03-19T22:49:55;14.03;;;12.03;;
15528;SDS011;7866;52.280;9.500;2023-03-19T22:54:56;12.37;;;11.07;;
15528;SDS011;7866;52.280;9.500;2023-03-19T22:59:58;14.87;;;13.37;;
15528;SDS011;7866;52.280;9.500;2023-03-19T23:05:01;13.83;;;12.47;;
15528;SDS011;7866;52.280;9.500;2023-03-19T23:10:21;14.20;;;12.70;;
15528;SDS011;7866;52.280;9.500;2023-03-19T23:15:26;14.73;;;13.23;;
15528;SDS011;7866;52.280;9.500;2023-03-19T23:20:31;16.30;;;14.67;;
15528;SDS011;7866;52.280;9.500;2023-03-19T23:25:33;17.37;;;15.53;;
15528;SDS011;7866;52.280;9.500;2023-03-19T23:30:35;17.07;;;15.27;;
15528;SDS011;7866;52.280;9.500;2023-03-19T23:35:41;17.43;;;15.27;;
15528;SDS011;7866;52.280;9.500;2023-03-19T23:40:43;20.73;;;17.47;;
15528;SDS011;7866;52.280;9.500;2023-03-19T23:45:46;19.47;;;17.27;;
15528;SDS011;7866;52.280;9.500;2023-03-19T23:50:50;19.20;;;16.50;;
15528;SDS011;7866;52.280;9.500;2023-03-19T23:55:54;17.90;;;15.57;;
